Aviation Digital Data Service (ADDS)

Output produced by TAFs form (1604 UTC 21 September 2017)
found at http://www.aviationweather.gov/adds/tafs/
 
METAR text: RJOH 211500Z 19003KT 9999 FEW050 18/15 Q1014
Conditions at: RJOH (MIHO (CIV/JASDF), JP) observed 1500 UTC 21 September 2017
Temperature: 18.0°C (64°F)
Dewpoint: 15.0°C (59°F) [RH = 83%]
Pressure (altimeter): 29.94 inches Hg (1014.0 mb)
Winds: from the S (190 degrees) at 3 MPH (3 knots; 1.6 m/s)
Visibility: 6 or more miles (10+ km)
Ceiling: at least 12,000 feet AGL
Clouds: few clouds at 5000 feet AGL
Weather: no significant weather observed at this time

Forecast for: RJOH (MIHO (CIV/JASDF), JP)
Text: TAF RJOH 211107Z 2112/2218 09009KT 9999 FEW035 SCT050
Forecast period: 1200 UTC 21 September 2017 to 0900 UTC 22 September 2017
Forecast type: FROM: standard forecast or significant change
Winds: from the E (90 degrees) at 10 MPH (9 knots; 4.7 m/s)
Visibility: 6 or more miles (10+ km)
Clouds: few clouds at 3500 feet AGL
scattered clouds at 5000 feet AGL
Weather: no significant weather forecast for this period
Text: BECMG 2209/2212 18004KT
Forecast period: 0900 to 1800 UTC 22 September 2017
Forecast type: BECOMING: Conditions expected to become as follows by 1200 UTC 22 September 2017
Winds: from the S (180 degrees) at 5 MPH (4 knots; 2.1 m/s)
Visibility: 6 or more miles (10+ km)
Clouds: few clouds at 3500 feet AGL
scattered clouds at 5000 feet AGL
Weather: no significant weather forecast for this period